createdAt,value
2018-05-29T00:02:23.540Z,47.80
2018-05-29T00:04:51.056Z,48.00
2018-05-29T00:07:19.320Z,48.80
2018-05-29T00:09:46.889Z,48.80
2018-05-29T00:12:14.368Z,48.80
2018-05-29T00:14:41.933Z,49.00
2018-05-29T00:17:09.429Z,49.30
2018-05-29T00:19:36.910Z,49.40
2018-05-29T00:22:04.484Z,49.50
2018-05-29T00:24:32.053Z,49.70
2018-05-29T00:27:00.317Z,49.60
2018-05-29T00:29:27.799Z,50.10
2018-05-29T00:31:56.055Z,50.50
2018-05-29T00:34:24.337Z,50.80
2018-05-29T00:36:51.824Z,50.80
2018-05-29T00:39:19.366Z,51.30
2018-05-29T00:41:47.625Z,51.40
2018-05-29T00:44:15.110Z,51.30
2018-05-29T00:46:43.376Z,51.70
2018-05-29T00:49:10.861Z,51.60
2018-05-29T00:51:38.350Z,51.90
2018-05-29T00:54:05.830Z,51.90
2018-05-29T00:56:33.331Z,52.20
2018-05-29T00:59:01.588Z,52.50
2018-05-29T01:01:29.068Z,52.50
2018-05-29T01:03:57.333Z,52.90
2018-05-29T01:06:25.616Z,52.90
2018-05-29T01:08:53.860Z,53.20
2018-05-29T01:11:21.344Z,53.20
2018-05-29T01:13:49.581Z,53.80
2018-05-29T01:16:17.282Z,53.30
2018-05-29T01:18:44.844Z,53.40
2018-05-29T01:21:12.407Z,53.70
2018-05-29T01:23:40.652Z,54.60
2018-05-29T01:26:08.161Z,53.80
2018-05-29T01:28:36.453Z,54.10
2018-05-29T01:31:04.362Z,54.00
2018-05-29T01:33:31.993Z,54.20
2018-05-29T01:36:00.207Z,54.40
2018-05-29T01:38:27.696Z,54.40
2018-05-29T01:40:55.932Z,54.50
2018-05-29T01:43:23.531Z,54.50
2018-05-29T01:45:51.770Z,54.70
2018-05-29T01:48:19.253Z,55.30
2018-05-29T01:50:46.796Z,54.80
2018-05-29T01:53:14.365Z,54.70
2018-05-29T01:55:41.830Z,54.90
2018-05-29T01:58:09.415Z,55.00
2018-05-29T02:00:37.696Z,55.00
2018-05-29T02:03:05.955Z,55.00
2018-05-29T02:05:33.544Z,54.90
2018-05-29T02:08:01.817Z,55.00
2018-05-29T02:10:30.080Z,54.90
2018-05-29T02:12:58.380Z,54.90
2018-05-29T02:15:26.652Z,54.80
2018-05-29T02:17:54.419Z,54.80
2018-05-29T02:20:22.656Z,54.60
2018-05-29T02:22:50.147Z,54.60
2018-05-29T02:25:18.416Z,54.80
2018-05-29T02:27:46.667Z,54.80
2018-05-29T02:30:14.951Z,54.70
2018-05-29T02:32:42.820Z,54.80
2018-05-29T02:35:10.359Z,54.80
2018-05-29T02:37:37.986Z,54.80
2018-05-29T02:40:05.464Z,54.80
2018-05-29T02:42:33.174Z,54.80
2018-05-29T02:45:00.651Z,54.90
2018-05-29T02:47:29.029Z,55.00
2018-05-29T02:49:57.277Z,55.00
2018-05-29T02:52:24.746Z,54.90
2018-05-29T02:54:52.247Z,55.10
2018-05-29T02:57:19.724Z,55.10
2018-05-29T02:59:47.240Z,55.00
2018-05-29T03:02:15.493Z,55.20
2018-05-29T03:04:42.985Z,55.20
2018-05-29T03:07:11.225Z,55.20
2018-05-29T03:09:38.715Z,55.20
2018-05-29T03:12:06.187Z,55.30
2018-05-29T03:14:34.576Z,55.40
2018-05-29T03:17:02.124Z,55.30
2018-05-29T03:19:30.460Z,55.40
2018-05-29T03:21:58.020Z,55.40
2018-05-29T03:24:25.715Z,55.50
2018-05-29T03:26:53.361Z,55.50
2018-05-29T03:29:20.961Z,55.60
2018-05-29T03:31:49.255Z,55.80
2018-05-29T03:34:16.784Z,55.70
2018-05-29T03:36:45.031Z,55.90
2018-05-29T03:39:12.532Z,55.80
2018-05-29T03:41:40.791Z,56.00
2018-05-29T03:44:08.274Z,56.00
2018-05-29T03:46:36.523Z,55.90
2018-05-29T03:49:04.021Z,55.80
2018-05-29T03:51:31.494Z,56.50
2018-05-29T03:53:59.013Z,55.80
2018-05-29T03:56:27.263Z,55.90
2018-05-29T03:58:54.772Z,55.80
2018-05-29T04:01:22.241Z,55.90
2018-05-29T04:03:49.730Z,55.80
2018-05-29T04:06:17.249Z,55.80
2018-05-29T04:08:44.921Z,56.30
2018-05-29T04:11:12.622Z,55.60
2018-05-29T04:13:40.105Z,55.70
2018-05-29T04:16:07.650Z,55.50
2018-05-29T04:18:35.149Z,55.40
2018-05-29T04:21:02.704Z,55.30
2018-05-29T04:23:30.956Z,55.30
2018-05-29T04:25:58.449Z,55.20
2018-05-29T04:28:25.937Z,55.20
2018-05-29T04:30:53.488Z,55.20
2018-05-29T04:33:21.020Z,54.90
2018-05-29T04:35:49.286Z,54.70
2018-05-29T04:38:17.549Z,54.70
2018-05-29T04:40:45.051Z,54.70
2018-05-29T04:43:12.536Z,54.50
2018-05-29T04:45:40.085Z,54.40
2018-05-29T04:48:07.567Z,54.30
2018-05-29T04:50:35.051Z,54.20
2018-05-29T04:53:02.531Z,54.10
2018-05-29T04:55:30.773Z,53.90
2018-05-29T04:57:58.245Z,53.80
2018-05-29T05:00:25.823Z,53.90
2018-05-29T05:02:54.129Z,53.80
2018-05-29T05:05:21.651Z,53.60
2018-05-29T05:07:50.671Z,53.40
2018-05-29T05:10:18.236Z,53.50
2018-05-29T05:12:45.747Z,53.00
2018-05-29T05:15:13.234Z,52.90
2018-05-29T05:17:41.571Z,52.70
2018-05-29T05:20:09.133Z,52.20
2018-05-29T05:22:36.659Z,51.80
2018-05-29T05:25:04.194Z,51.70
2018-05-29T05:27:32.488Z,50.50
2018-05-29T05:30:00.799Z,50.80
2018-05-29T05:32:28.300Z,50.70
2018-05-29T05:34:56.594Z,50.80
2018-05-29T05:37:24.870Z,50.70
2018-05-29T05:39:53.133Z,50.30
2018-05-29T05:42:20.620Z,50.30
2018-05-29T05:44:48.892Z,49.40
2018-05-29T05:47:17.140Z,48.10
2018-05-29T05:49:44.624Z,48.00
2018-05-29T05:52:12.898Z,44.30
2018-05-29T05:54:41.144Z,44.10
2018-05-29T05:57:08.651Z,44.10
2018-05-29T05:59:36.206Z,44.20
2018-05-29T06:02:04.526Z,43.70
2018-05-29T06:04:32.029Z,43.70
2018-05-29T06:06:59.519Z,44.20
2018-05-29T06:09:27.681Z,44.30
2018-05-29T06:11:55.953Z,44.60
2018-05-29T06:14:24.187Z,44.00
2018-05-29T06:16:51.703Z,44.00
2018-05-29T06:19:19.192Z,44.40
2018-05-29T06:21:46.738Z,44.20
2018-05-29T06:24:15.360Z,43.60
2018-05-29T06:26:42.852Z,43.50
2018-05-29T06:29:11.153Z,43.20
2018-05-29T06:31:38.697Z,43.20
2018-05-29T06:34:06.960Z,43.50
2018-05-29T06:36:34.561Z,43.50
2018-05-29T06:39:02.055Z,43.30
2018-05-29T06:41:29.525Z,42.70
2018-05-29T06:43:57.883Z,42.40
2018-05-29T06:46:25.825Z,42.50
2018-05-29T06:48:53.348Z,41.70
2018-05-29T06:51:22.335Z,41.20
2018-05-29T06:53:50.592Z,41.50
2018-05-29T06:56:18.102Z,41.50
2018-05-29T06:58:45.635Z,41.50
2018-05-29T07:01:13.886Z,40.30
2018-05-29T07:03:41.365Z,40.20
2018-05-29T07:06:08.870Z,40.50
2018-05-29T07:08:36.387Z,39.90
2018-05-29T07:11:03.888Z,39.00
2018-05-29T07:13:31.380Z,37.50
2018-05-29T07:15:58.884Z,37.60
2018-05-29T07:18:27.152Z,36.60
2018-05-29T07:20:54.659Z,36.60
2018-05-29T07:23:22.193Z,35.70
2018-05-29T07:25:50.471Z,34.80
2018-05-29T07:28:18.733Z,34.30
2018-05-29T07:30:47.016Z,34.70
2018-05-29T07:33:15.256Z,33.40
2018-05-29T07:35:42.749Z,33.30
2018-05-29T07:38:11.067Z,32.70
2018-05-29T07:40:38.599Z,32.70
2018-05-29T07:43:06.870Z,33.20
2018-05-29T07:45:35.119Z,30.60
2018-05-29T07:48:02.614Z,30.60
2018-05-29T07:50:30.871Z,28.70
2018-05-29T07:52:58.496Z,28.70
2018-05-29T07:55:25.989Z,28.10
2018-05-29T07:57:54.049Z,28.50
2018-05-29T08:00:21.623Z,27.80
2018-05-29T08:02:49.198Z,27.90
2018-05-29T08:05:16.744Z,28.40
2018-05-29T08:07:44.318Z,28.70
2018-05-29T08:10:11.900Z,29.70
2018-05-29T08:12:39.407Z,29.90
2018-05-29T08:15:07.030Z,29.60
2018-05-29T08:17:34.530Z,29.70
2018-05-29T08:20:02.029Z,29.60
2018-05-29T08:22:30.295Z,29.60
2018-05-29T08:24:58.560Z,29.50
2018-05-29T08:27:26.035Z,29.50
2018-05-29T08:29:53.543Z,29.50
2018-05-29T08:32:21.082Z,29.10
2018-05-29T08:34:48.573Z,28.80
2018-05-29T08:37:16.121Z,27.90
2018-05-29T08:39:43.692Z,28.50
2018-05-29T08:42:11.185Z,28.40
2018-05-29T08:44:38.692Z,28.40
2018-05-29T08:47:06.182Z,28.50
2018-05-29T08:49:33.671Z,29.10
2018-05-29T08:52:01.975Z,30.00
2018-05-29T08:54:29.523Z,29.60
2018-05-29T08:56:58.160Z,29.80
2018-05-29T08:59:25.645Z,29.80
2018-05-29T09:01:53.111Z,29.90
2018-05-29T09:04:20.701Z,29.70
2018-05-29T09:06:49.107Z,29.70
2018-05-29T09:09:16.624Z,29.80
2018-05-29T09:11:44.963Z,29.90
2018-05-29T09:14:12.462Z,29.80
2018-05-29T09:16:40.736Z,29.70
2018-05-29T09:19:08.210Z,29.70
2018-05-29T09:21:36.460Z,30.00
2018-05-29T09:24:03.993Z,30.00
2018-05-29T09:26:31.523Z,30.10
2018-05-29T09:28:59.008Z,29.70
2018-05-29T09:31:26.525Z,29.40
2018-05-29T09:33:54.821Z,29.30
2018-05-29T09:36:22.294Z,29.30
2018-05-29T09:38:49.770Z,28.80
2018-05-29T09:41:17.263Z,29.00
2018-05-29T09:43:44.804Z,29.20
2018-05-29T09:46:12.307Z,28.60
2018-05-29T09:48:40.545Z,28.70
2018-05-29T09:51:08.051Z,28.70
2018-05-29T09:53:35.548Z,28.00
2018-05-29T09:56:03.084Z,27.60
2018-05-29T09:58:30.562Z,27.10
2018-05-29T10:00:58.052Z,27.00
2018-05-29T10:03:25.627Z,27.50
2018-05-29T10:05:53.904Z,27.70
2018-05-29T10:08:22.193Z,27.10
2018-05-29T10:10:50.482Z,27.20
2018-05-29T10:13:18.739Z,26.50
2018-05-29T10:15:46.241Z,26.50
2018-05-29T10:18:13.715Z,26.40
2018-05-29T10:20:41.208Z,26.00
2018-05-29T10:23:08.768Z,25.80
2018-05-29T10:25:37.800Z,25.90
2018-05-29T10:28:05.347Z,25.90
2018-05-29T10:30:33.602Z,25.70
2018-05-29T10:33:01.893Z,25.90
2018-05-29T10:35:30.165Z,25.30
2018-05-29T10:37:57.643Z,25.30
2018-05-29T10:40:25.137Z,25.00
2018-05-29T10:42:52.643Z,24.90
2018-05-29T10:45:20.928Z,25.40
2018-05-29T10:47:49.178Z,25.30
2018-05-29T10:50:16.764Z,25.30
2018-05-29T10:52:45.028Z,24.60
2018-05-29T10:55:12.511Z,24.50
2018-05-29T10:57:40.776Z,23.60
2018-05-29T11:00:08.238Z,23.50
2018-05-29T11:02:36.516Z,23.40
2018-05-29T11:05:04.758Z,24.00
2018-05-29T11:07:32.307Z,23.90
2018-05-29T11:09:59.803Z,23.90
2018-05-29T11:12:27.311Z,23.80
2018-05-29T11:14:54.784Z,23.10
2018-05-29T11:17:22.279Z,22.70
2018-05-29T11:19:49.852Z,22.70
2018-05-29T11:22:18.123Z,23.20
2018-05-29T11:24:45.608Z,23.10
2018-05-29T11:27:13.108Z,23.00
2018-05-29T11:29:40.596Z,22.70
2018-05-29T11:32:08.088Z,21.80
2018-05-29T11:34:35.587Z,21.90
2018-05-29T11:37:03.103Z,22.10
2018-05-29T11:39:31.359Z,22.20
2018-05-29T11:41:58.840Z,22.20
2018-05-29T11:44:26.390Z,22.40
2018-05-29T11:46:54.635Z,21.70
2018-05-29T11:49:22.151Z,21.70
2018-05-29T11:51:49.692Z,21.90
2018-05-29T11:54:17.961Z,21.70
2018-05-29T11:56:46.249Z,21.80
2018-05-29T11:59:15.502Z,21.60
2018-05-29T12:01:43.045Z,21.60
2018-05-29T12:04:10.566Z,21.70
2018-05-29T12:06:38.841Z,21.80
2018-05-29T12:09:07.124Z,21.90
2018-05-29T12:11:35.404Z,21.60
2018-05-29T12:14:03.665Z,22.00
2018-05-29T12:16:31.131Z,22.00
2018-05-29T12:18:59.423Z,22.20
2018-05-29T12:21:27.679Z,22.00
2018-05-29T12:23:55.164Z,22.00
2018-05-29T12:26:22.667Z,22.00
2018-05-29T12:28:50.160Z,21.60
2018-05-29T12:31:18.441Z,21.70
2018-05-29T12:33:46.719Z,21.30
2018-05-29T12:36:14.960Z,21.60
2018-05-29T12:38:42.442Z,21.50
2018-05-29T12:41:09.926Z,21.70
2018-05-29T12:43:38.179Z,21.60
2018-05-29T12:46:05.705Z,21.60
2018-05-29T12:48:33.200Z,21.50
2018-05-29T12:51:00.683Z,21.80
2018-05-29T12:53:28.946Z,21.60
2018-05-29T12:55:57.198Z,21.80
2018-05-29T12:58:24.707Z,21.80
2018-05-29T13:00:52.203Z,22.00
2018-05-29T13:03:19.693Z,22.20
2018-05-29T13:05:47.168Z,21.90
2018-05-29T13:08:15.482Z,22.20
2018-05-29T13:10:42.973Z,22.20
2018-05-29T13:13:10.439Z,21.80
2018-05-29T13:15:37.929Z,21.20
2018-05-29T13:18:06.212Z,21.70
2018-05-29T13:20:34.459Z,22.00
2018-05-29T13:23:02.033Z,22.00
2018-05-29T13:25:30.273Z,21.80
2018-05-29T13:27:57.763Z,21.80
2018-05-29T13:30:25.338Z,21.70
2018-05-29T13:32:53.589Z,21.70
2018-05-29T13:35:21.224Z,21.60
2018-05-29T13:37:48.654Z,21.60
2018-05-29T13:40:16.134Z,21.80
2018-05-29T13:42:43.619Z,21.90
2018-05-29T13:45:11.190Z,22.00
2018-05-29T13:47:39.514Z,22.60
2018-05-29T13:50:07.019Z,22.60
2018-05-29T13:52:34.492Z,22.70
2018-05-29T13:55:01.981Z,22.70
2018-05-29T13:57:30.214Z,22.20
2018-05-29T13:59:57.704Z,22.20
2018-05-29T14:02:25.948Z,22.50
2018-05-29T14:04:53.456Z,22.40
2018-05-29T14:07:21.684Z,22.70
2018-05-29T14:09:49.208Z,22.60
2018-05-29T14:12:16.738Z,21.90
2018-05-29T14:14:45.029Z,22.00
2018-05-29T14:17:12.512Z,22.00
2018-05-29T14:19:40.040Z,21.90
2018-05-29T14:22:08.310Z,22.00
2018-05-29T14:24:36.608Z,22.20
2018-05-29T14:27:04.164Z,22.10
2018-05-29T14:29:32.420Z,21.70
2018-05-29T14:31:59.979Z,21.70
2018-05-29T14:34:28.977Z,22.20
2018-05-29T14:36:57.253Z,21.90
2018-05-29T14:39:24.854Z,21.90
2018-05-29T14:41:52.520Z,21.80
2018-05-29T14:44:20.091Z,21.70
2018-05-29T14:46:48.333Z,22.10
2018-05-29T14:49:16.695Z,21.90
2018-05-29T14:51:44.191Z,21.80
2018-05-29T14:54:11.737Z,22.60
2018-05-29T14:56:40.035Z,21.90
2018-05-29T14:59:07.524Z,21.80
2018-05-29T15:01:35.088Z,21.20
2018-05-29T15:04:02.550Z,21.60
2018-05-29T15:06:30.158Z,21.60
2018-05-29T15:08:58.458Z,21.80
2018-05-29T15:11:25.931Z,21.80
2018-05-29T15:13:53.405Z,22.20
2018-05-29T15:16:20.892Z,21.80
2018-05-29T15:18:48.387Z,21.60
2018-05-29T15:21:15.942Z,21.70
2018-05-29T15:23:43.415Z,21.50
2018-05-29T15:26:10.913Z,22.30
2018-05-29T15:28:38.415Z,21.60
2018-05-29T15:31:05.912Z,22.00
2018-05-29T15:33:33.402Z,22.10
2018-05-29T15:36:00.879Z,22.10
2018-05-29T15:38:29.122Z,22.40
2018-05-29T15:40:56.628Z,22.40
2018-05-29T15:43:24.878Z,21.70
2018-05-29T15:45:52.367Z,21.70
2018-05-29T15:48:20.637Z,21.90
2018-05-29T15:50:49.169Z,21.70
2018-05-29T15:53:16.673Z,21.60
2018-05-29T15:55:44.919Z,21.50
2018-05-29T15:58:12.510Z,21.40
2018-05-29T16:00:40.829Z,21.80
2018-05-29T16:03:08.325Z,21.80
2018-05-29T16:05:35.813Z,21.30
2018-05-29T16:08:04.073Z,21.60
2018-05-29T16:10:31.635Z,21.60
2018-05-29T16:12:59.153Z,21.50
2018-05-29T16:15:26.638Z,21.40
2018-05-29T16:17:54.134Z,21.40
2018-05-29T16:20:22.422Z,21.30
2018-05-29T16:22:49.967Z,21.30
2018-05-29T16:25:18.228Z,21.50
2018-05-29T16:27:46.502Z,21.40
2018-05-29T16:30:14.086Z,21.40
2018-05-29T16:32:42.359Z,21.60
2018-05-29T16:35:10.609Z,21.70
2018-05-29T16:37:38.128Z,21.60
2018-05-29T16:40:05.615Z,21.60
2018-05-29T16:42:33.191Z,21.60
2018-05-29T16:45:00.683Z,22.30
2018-05-29T16:47:28.935Z,22.90
2018-05-29T16:49:56.415Z,22.80
2018-05-29T16:52:23.927Z,22.80
2018-05-29T16:54:51.417Z,23.10
2018-05-29T16:57:18.891Z,23.00
2018-05-29T16:59:47.211Z,23.10
2018-05-29T17:02:14.766Z,23.10
2018-05-29T17:04:42.265Z,23.50
2018-05-29T17:07:09.763Z,23.20
2018-05-29T17:09:38.356Z,23.40
2018-05-29T17:12:06.632Z,23.20
2018-05-29T17:14:34.991Z,23.20
2018-05-29T17:17:03.291Z,23.60
2018-05-29T17:19:30.848Z,23.50
2018-05-29T17:21:59.132Z,23.10
2018-05-29T17:24:26.648Z,23.10
2018-05-29T17:26:54.119Z,22.90
2018-05-29T17:29:23.068Z,22.90
2018-05-29T17:31:50.558Z,22.90
2018-05-29T17:34:18.252Z,23.20
2018-05-29T17:36:46.493Z,23.70
2018-05-29T17:39:13.995Z,23.10
2018-05-29T17:44:35.564Z,22.90
2018-05-29T17:47:03.033Z,22.50
2018-05-29T17:49:30.543Z,22.50
2018-05-29T17:51:58.786Z,22.90
2018-05-29T17:54:26.292Z,22.50
2018-05-29T17:56:54.515Z,22.70
2018-05-29T17:59:21.994Z,22.50
2018-05-29T18:01:49.458Z,22.50
2018-05-29T18:04:17.711Z,22.30
2018-05-29T18:06:45.244Z,22.30
2018-05-29T18:09:12.731Z,22.20
2018-05-29T18:11:40.204Z,22.60
2018-05-29T18:14:07.747Z,22.40
2018-05-29T18:16:35.988Z,22.40
2018-05-29T18:19:04.257Z,22.50
2018-05-29T18:21:32.505Z,22.70
2018-05-29T18:24:01.667Z,22.90
2018-05-29T18:26:29.141Z,22.80
2018-05-29T18:28:56.640Z,23.00
2018-05-29T18:31:24.945Z,23.30
2018-05-29T18:33:52.555Z,23.30
2018-05-29T18:36:20.099Z,23.20
2018-05-29T18:38:47.721Z,23.30
2018-05-29T18:41:15.979Z,23.80
2018-05-29T18:43:44.255Z,24.10
2018-05-29T18:46:12.526Z,23.90
2018-05-29T18:48:40.200Z,23.80
2018-05-29T18:51:08.460Z,24.50
2018-05-29T18:53:35.948Z,24.50
2018-05-29T18:56:04.225Z,24.80
2018-05-29T18:58:32.477Z,24.90
2018-05-29T19:00:59.984Z,24.90
2018-05-29T19:03:27.816Z,25.30
2018-05-29T19:05:55.325Z,25.40
2018-05-29T19:08:22.815Z,25.60
2018-05-29T19:10:50.336Z,25.80
2018-05-29T19:13:17.807Z,25.90
2018-05-29T19:15:45.299Z,25.90
2018-05-29T19:18:12.779Z,26.00
2018-05-29T19:20:41.127Z,27.00
2018-05-29T19:23:08.680Z,26.40
2018-05-29T19:25:36.230Z,26.20
2018-05-29T19:28:03.738Z,26.40
2018-05-29T19:30:32.061Z,26.90
2018-05-29T19:32:59.567Z,26.30
2018-05-29T19:35:27.189Z,26.50
2018-05-29T19:37:54.790Z,26.70
2018-05-29T19:40:22.383Z,27.10
2018-05-29T19:42:50.708Z,26.90
2018-05-29T19:45:18.183Z,26.90
2018-05-29T19:47:45.754Z,27.00
2018-05-29T19:50:13.268Z,27.30
2018-05-29T19:52:40.761Z,27.80
2018-05-29T19:55:08.245Z,27.40
2018-05-29T19:57:36.495Z,27.60
2018-05-29T20:00:03.989Z,27.50
2018-05-29T20:02:32.255Z,27.80
2018-05-29T20:05:00.500Z,28.00
2018-05-29T20:07:28.083Z,28.00
2018-05-29T20:09:56.333Z,28.20
2018-05-29T20:12:23.823Z,28.20
2018-05-29T20:14:51.327Z,28.10
2018-05-29T20:17:18.873Z,28.20
2018-05-29T20:19:46.414Z,28.20
2018-05-29T20:22:14.928Z,28.40
2018-05-29T20:24:42.416Z,28.40
2018-05-29T20:27:09.911Z,28.50
2018-05-29T20:29:39.211Z,28.80
2018-05-29T20:32:06.733Z,28.70
2018-05-29T20:34:34.216Z,28.90
2018-05-29T20:37:01.969Z,28.90
2018-05-29T20:39:30.095Z,29.00
2018-05-29T20:41:57.579Z,29.20
2018-05-29T20:44:25.065Z,29.20
2018-05-29T20:46:52.598Z,29.20
2018-05-29T20:49:20.103Z,29.30
2018-05-29T20:51:47.616Z,29.30
2018-05-29T20:54:15.111Z,29.40
2018-05-29T20:56:42.635Z,29.40
2018-05-29T20:59:10.115Z,29.50
2018-05-29T21:01:37.645Z,29.50
2018-05-29T21:04:05.553Z,29.60
2018-05-29T21:06:33.174Z,29.60
2018-05-29T21:09:00.690Z,29.70
2018-05-29T21:11:28.176Z,30.00
2018-05-29T21:13:56.447Z,30.10
2018-05-29T21:16:24.744Z,30.10
2018-05-29T21:18:52.282Z,30.00
2018-05-29T21:21:20.533Z,30.00
2018-05-29T21:23:48.064Z,30.00
2018-05-29T21:26:15.561Z,30.00
2018-05-29T21:28:43.085Z,30.30
2018-05-29T21:31:10.571Z,30.20
2018-05-29T21:33:38.166Z,30.10
2018-05-29T21:36:05.660Z,30.20
2018-05-29T21:38:33.165Z,30.40
2018-05-29T21:41:00.644Z,30.40
2018-05-29T21:43:28.956Z,30.50
2018-05-29T21:45:56.429Z,30.50
2018-05-29T21:48:23.939Z,30.80
2018-05-29T21:50:52.202Z,30.90
2018-05-29T21:53:19.763Z,30.80
2018-05-29T21:55:47.324Z,30.90
2018-05-29T21:58:16.375Z,30.90
2018-05-29T22:00:43.873Z,30.90
2018-05-29T22:03:11.355Z,31.00
2018-05-29T22:05:39.634Z,31.30
2018-05-29T22:08:07.895Z,31.50
2018-05-29T22:10:35.401Z,31.40
2018-05-29T22:13:02.886Z,31.30
2018-05-29T22:15:30.385Z,31.60
2018-05-29T22:17:58.764Z,31.60
2018-05-29T22:20:27.011Z,31.80
2018-05-29T22:22:54.507Z,31.80
2018-05-29T22:25:22.765Z,31.90
2018-05-29T22:27:50.243Z,31.90
2018-05-29T22:30:18.539Z,32.00
2018-05-29T22:32:46.071Z,32.00
2018-05-29T22:35:13.638Z,32.10
2018-05-29T22:37:41.978Z,32.30
2018-05-29T22:40:09.468Z,32.20
2018-05-29T22:42:36.933Z,32.50
2018-05-29T22:45:05.323Z,32.70
2018-05-29T22:47:33.570Z,32.80
2018-05-29T22:50:01.097Z,32.80
2018-05-29T22:52:28.991Z,32.90
2018-05-29T22:54:56.635Z,33.00
2018-05-29T22:57:24.146Z,33.10
2018-05-29T22:59:52.394Z,33.30
2018-05-29T23:02:19.911Z,33.30
2018-05-29T23:04:47.394Z,33.40
2018-05-29T23:07:15.027Z,33.60
2018-05-29T23:09:42.601Z,33.60
2018-05-29T23:12:10.134Z,33.80
2018-05-29T23:14:38.374Z,34.10
2018-05-29T23:17:05.998Z,34.00
2018-05-29T23:19:33.498Z,34.20
2018-05-29T23:22:00.969Z,34.30
2018-05-29T23:24:28.456Z,34.50
2018-05-29T23:26:56.687Z,34.80
2018-05-29T23:29:24.179Z,34.80
2018-05-29T23:31:52.472Z,35.40
2018-05-29T23:34:20.774Z,35.50
2018-05-29T23:36:48.277Z,35.50
2018-05-29T23:39:15.740Z,35.70
2018-05-29T23:41:43.988Z,36.00
2018-05-29T23:44:11.556Z,36.00
2018-05-29T23:46:39.046Z,36.20
2018-05-29T23:49:06.528Z,36.40
2018-05-29T23:51:34.029Z,36.70
2018-05-29T23:54:01.503Z,35.90
2018-05-29T23:56:29.078Z,37.00
2018-05-29T23:58:56.648Z,37.20
